This is the latest recevied weather packets stored in our database for station/object NY3Q. If no packets are shown the sender has not sent any weather packets the latest 10 day(s).
| Time | Temp. | Humidity | Pressure | Rain* | Wind** | Luminosity | Snow |
|---|---|---|---|---|---|---|---|
| 1777748372 | 21.11° C | 94% | 1009.2 hPa | 0 mm | - | 152 W/m² | - |
| 1777748067 | 21.11° C | 95% | 1009 hPa | 0 mm | - | 114 W/m² | - |
| 1777747765 | 21.11° C | 95% | 1008.8 hPa | 0 mm | - | 135 W/m² | - |
| 1777747460 | 21.67° C | 95% | 1008.8 hPa | 0 mm | - | 141 W/m² | - |
| 1777747157 | 21.11° C | 95% | 1008.8 hPa | 0 mm | - | 213 W/m² | - |
| 1777746853 | 20.56° C | 95% | 1009.1 hPa | 0 mm | - | 253 W/m² | - |
| 1777746549 | 21.11° C | 95% | 1008.9 hPa | 0 mm | - | 61 W/m² | - |
| 1777746244 | 21.11° C | 95% | 1009.3 hPa | 0 mm | - | 85 W/m² | - |
| 1777745941 | 20.56° C | 95% | 1009 hPa | 0 mm | - | 227 W/m² | - |
| 1777745639 | 20.56° C | 95% | 1008.9 hPa | 0 mm | - | 109 W/m² | - |
| 1777745337 | 20.56° C | 95% | 1009.1 hPa | 0 mm | - | 147 W/m² | - |
| 1777745034 | 20.56° C | 95% | 1009.3 hPa | 0 mm | - | 127 W/m² | - |
| 1777744729 | 20° C | 95% | 1009.3 hPa | 0 mm | - | 161 W/m² | - |
| 1777744424 | 20.56° C | 95% | 1009.9 hPa | 0 mm | - | 43 W/m² | - |
| 1777744121 | 20.56° C | 95% | 1009.6 hPa | 0 mm | - | 43 W/m² | - |
| 1777743818 | 20.56° C | 95% | 1009.6 hPa | 0 mm | - | 228 W/m² | - |
| 1777743515 | 20° C | 95% | 1009.6 hPa | 0 mm | - | 164 W/m² | - |
| 1777743212 | 20° C | 95% | 1009.6 hPa | 0 mm | - | 132 W/m² | - |
| 1777742910 | 20° C | 95% | 1009.8 hPa | 0 mm | - | 90 W/m² | - |
| 1777742607 | 20° C | 95% | 1009.7 hPa | 0 mm | - | 72 W/m² | - |
| 1777742302 | 20° C | 95% | 1009.6 hPa | 0 mm | - | 73 W/m² | - |
| 1777741999 | 20° C | 95% | 1009.7 hPa | 0 mm | - | 104 W/m² | - |
| 1777741696 | 20° C | 95% | 1009.8 hPa | 6.1 mm | - | 96 W/m² | - |
| 1777741392 | 20° C | 94% | 1010.2 hPa | 10.67 mm | - | 80 W/m² | - |
| 1777741089 | 20° C | 94% | 1010.4 hPa | 12.7 mm | - | 10 W/m² | - |
* Rain latest hour (hover to see other rain measurements)
** Current wind speed in m/s (hover to see current wind gust speed)